sensor_id;sensor_type;location;lat;lon;timestamp;P1;durP1;ratioP1;P2;durP2;ratioP2
10985;SDS011;5546;48.714;8.738;2023-04-24T00:02:15;2.93;;;1.10;;
10985;SDS011;5546;48.714;8.738;2023-04-24T00:04:41;3.60;;;1.43;;
10985;SDS011;5546;48.714;8.738;2023-04-24T00:07:09;1.33;;;1.23;;
10985;SDS011;5546;48.714;8.738;2023-04-24T00:09:36;1.70;;;1.10;;
10985;SDS011;5546;48.714;8.738;2023-04-24T00:12:02;1.57;;;1.13;;
10985;SDS011;5546;48.714;8.738;2023-04-24T00:14:31;1.77;;;1.33;;
10985;SDS011;5546;48.714;8.738;2023-04-24T00:16:57;1.40;;;1.17;;
10985;SDS011;5546;48.714;8.738;2023-04-24T00:19:22;3.33;;;1.20;;
10985;SDS011;5546;48.714;8.738;2023-04-24T00:21:48;2.27;;;1.20;;
10985;SDS011;5546;48.714;8.738;2023-04-24T00:24:17;5.40;;;1.57;;
10985;SDS011;5546;48.714;8.738;2023-04-24T00:26:43;1.73;;;1.10;;
10985;SDS011;5546;48.714;8.738;2023-04-24T00:29:09;1.77;;;1.27;;
10985;SDS011;5546;48.714;8.738;2023-04-24T00:31:35;1.30;;;1.20;;
10985;SDS011;5546;48.714;8.738;2023-04-24T00:34:01;1.63;;;1.03;;
10985;SDS011;5546;48.714;8.738;2023-04-24T00:36:27;4.40;;;1.20;;
10985;SDS011;5546;48.714;8.738;2023-04-24T00:38:53;1.90;;;1.10;;
10985;SDS011;5546;48.714;8.738;2023-04-24T00:41:19;1.50;;;1.20;;
10985;SDS011;5546;48.714;8.738;2023-04-24T00:43:45;1.87;;;1.10;;
10985;SDS011;5546;48.714;8.738;2023-04-24T00:46:11;3.97;;;1.00;;
10985;SDS011;5546;48.714;8.738;2023-04-24T00:48:38;0.83;;;0.83;;
10985;SDS011;5546;48.714;8.738;2023-04-24T00:51:05;4.10;;;1.20;;
10985;SDS011;5546;48.714;8.738;2023-04-24T00:53:31;2.67;;;1.23;;
10985;SDS011;5546;48.714;8.738;2023-04-24T00:55:57;3.37;;;1.00;;
10985;SDS011;5546;48.714;8.738;2023-04-24T00:58:23;2.00;;;1.20;;
10985;SDS011;5546;48.714;8.738;2023-04-24T01:00:49;2.40;;;1.23;;
10985;SDS011;5546;48.714;8.738;2023-04-24T01:03:18;4.30;;;1.20;;
10985;SDS011;5546;48.714;8.738;2023-04-24T01:05:49;1.83;;;1.17;;
10985;SDS011;5546;48.714;8.738;2023-04-24T01:08:15;3.40;;;1.10;;
10985;SDS011;5546;48.714;8.738;2023-04-24T01:10:41;1.07;;;0.90;;
10985;SDS011;5546;48.714;8.738;2023-04-24T01:13:09;3.50;;;1.20;;
10985;SDS011;5546;48.714;8.738;2023-04-24T01:15:35;1.43;;;1.00;;
10985;SDS011;5546;48.714;8.738;2023-04-24T01:18:01;2.67;;;1.07;;
10985;SDS011;5546;48.714;8.738;2023-04-24T01:20:28;1.93;;;1.00;;
10985;SDS011;5546;48.714;8.738;2023-04-24T01:22:55;3.03;;;1.10;;
10985;SDS011;5546;48.714;8.738;2023-04-24T01:25:21;1.23;;;1.00;;
10985;SDS011;5546;48.714;8.738;2023-04-24T01:27:47;1.47;;;0.93;;
10985;SDS011;5546;48.714;8.738;2023-04-24T01:30:12;1.63;;;1.00;;
10985;SDS011;5546;48.714;8.738;2023-04-24T01:32:38;3.40;;;1.40;;
10985;SDS011;5546;48.714;8.738;2023-04-24T01:35:05;3.63;;;1.00;;
10985;SDS011;5546;48.714;8.738;2023-04-24T01:37:31;0.97;;;0.90;;
10985;SDS011;5546;48.714;8.738;2023-04-24T01:39:58;4.93;;;1.20;;
10985;SDS011;5546;48.714;8.738;2023-04-24T01:42:24;4.10;;;1.00;;
10985;SDS011;5546;48.714;8.738;2023-04-24T01:44:50;4.30;;;1.10;;
10985;SDS011;5546;48.714;8.738;2023-04-24T01:47:16;3.37;;;1.00;;
10985;SDS011;5546;48.714;8.738;2023-04-24T01:49:42;4.57;;;1.07;;
10985;SDS011;5546;48.714;8.738;2023-04-24T01:52:07;2.80;;;1.10;;
10985;SDS011;5546;48.714;8.738;2023-04-24T01:54:33;1.60;;;1.17;;
10985;SDS011;5546;48.714;8.738;2023-04-24T01:56:58;1.87;;;1.07;;
10985;SDS011;5546;48.714;8.738;2023-04-24T01:59:25;1.20;;;1.10;;
10985;SDS011;5546;48.714;8.738;2023-04-24T02:01:53;4.73;;;1.20;;
10985;SDS011;5546;48.714;8.738;2023-04-24T02:04:19;1.83;;;1.20;;
10985;SDS011;5546;48.714;8.738;2023-04-24T02:06:45;3.90;;;1.30;;
10985;SDS011;5546;48.714;8.738;2023-04-24T02:09:10;2.73;;;1.10;;
10985;SDS011;5546;48.714;8.738;2023-04-24T02:11:36;3.43;;;1.17;;
10985;SDS011;5546;48.714;8.738;2023-04-24T02:14:02;1.43;;;1.10;;
10985;SDS011;5546;48.714;8.738;2023-04-24T02:16:28;2.60;;;1.10;;
10985;SDS011;5546;48.714;8.738;2023-04-24T02:18:57;3.67;;;1.10;;
10985;SDS011;5546;48.714;8.738;2023-04-24T02:21:23;1.67;;;1.10;;
10985;SDS011;5546;48.714;8.738;2023-04-24T02:23:48;3.53;;;1.40;;
10985;SDS011;5546;48.714;8.738;2023-04-24T02:26:14;3.50;;;1.40;;
10985;SDS011;5546;48.714;8.738;2023-04-24T02:28:41;2.90;;;1.30;;
10985;SDS011;5546;48.714;8.738;2023-04-24T02:31:07;1.43;;;1.27;;
10985;SDS011;5546;48.714;8.738;2023-04-24T02:33:32;1.93;;;1.40;;
10985;SDS011;5546;48.714;8.738;2023-04-24T02:35:58;2.30;;;1.30;;
10985;SDS011;5546;48.714;8.738;2023-04-24T02:38:24;1.60;;;1.33;;
10985;SDS011;5546;48.714;8.738;2023-04-24T02:40:50;2.53;;;1.30;;
10985;SDS011;5546;48.714;8.738;2023-04-24T02:43:16;2.60;;;1.40;;
10985;SDS011;5546;48.714;8.738;2023-04-24T02:45:42;2.90;;;1.30;;
10985;SDS011;5546;48.714;8.738;2023-04-24T02:48:08;2.17;;;1.40;;
10985;SDS011;5546;48.714;8.738;2023-04-24T02:50:33;4.30;;;1.40;;
10985;SDS011;5546;48.714;8.738;2023-04-24T02:52:59;1.70;;;1.23;;
10985;SDS011;5546;48.714;8.738;2023-04-24T02:55:25;2.33;;;1.50;;
10985;SDS011;5546;48.714;8.738;2023-04-24T02:57:50;3.40;;;1.30;;
10985;SDS011;5546;48.714;8.738;2023-04-24T03:00:16;2.43;;;1.30;;
10985;SDS011;5546;48.714;8.738;2023-04-24T03:02:42;3.23;;;1.40;;
10985;SDS011;5546;48.714;8.738;2023-04-24T03:05:08;2.47;;;1.30;;
10985;SDS011;5546;48.714;8.738;2023-04-24T03:07:36;2.77;;;1.40;;
10985;SDS011;5546;48.714;8.738;2023-04-24T03:10:02;3.40;;;1.50;;
10985;SDS011;5546;48.714;8.738;2023-04-24T03:12:29;3.97;;;1.60;;
10985;SDS011;5546;48.714;8.738;2023-04-24T03:14:55;1.60;;;1.30;;
10985;SDS011;5546;48.714;8.738;2023-04-24T03:17:21;3.23;;;1.50;;
10985;SDS011;5546;48.714;8.738;2023-04-24T03:19:46;3.97;;;1.40;;
10985;SDS011;5546;48.714;8.738;2023-04-24T03:22:12;4.50;;;1.43;;
10985;SDS011;5546;48.714;8.738;2023-04-24T03:24:38;4.60;;;1.57;;
10985;SDS011;5546;48.714;8.738;2023-04-24T03:27:05;1.57;;;1.30;;
10985;SDS011;5546;48.714;8.738;2023-04-24T03:29:30;1.93;;;1.50;;
10985;SDS011;5546;48.714;8.738;2023-04-24T03:31:56;4.27;;;1.63;;
10985;SDS011;5546;48.714;8.738;2023-04-24T03:34:22;1.80;;;1.20;;
10985;SDS011;5546;48.714;8.738;2023-04-24T03:36:48;5.13;;;1.80;;
10985;SDS011;5546;48.714;8.738;2023-04-24T03:39:14;3.73;;;1.50;;
10985;SDS011;5546;48.714;8.738;2023-04-24T03:41:40;1.80;;;1.60;;
10985;SDS011;5546;48.714;8.738;2023-04-24T03:44:06;1.43;;;1.20;;
10985;SDS011;5546;48.714;8.738;2023-04-24T03:46:32;3.23;;;1.60;;
10985;SDS011;5546;48.714;8.738;2023-04-24T03:48:58;1.57;;;1.43;;
10985;SDS011;5546;48.714;8.738;2023-04-24T03:51:24;2.53;;;1.40;;
10985;SDS011;5546;48.714;8.738;2023-04-24T03:53:52;2.10;;;1.57;;
10985;SDS011;5546;48.714;8.738;2023-04-24T03:56:18;3.03;;;1.60;;
10985;SDS011;5546;48.714;8.738;2023-04-24T03:58:45;5.60;;;1.97;;
10985;SDS011;5546;48.714;8.738;2023-04-24T04:01:11;2.50;;;1.60;;
10985;SDS011;5546;48.714;8.738;2023-04-24T04:03:38;2.03;;;1.60;;
10985;SDS011;5546;48.714;8.738;2023-04-24T04:06:03;2.97;;;1.47;;
10985;SDS011;5546;48.714;8.738;2023-04-24T04:08:29;2.50;;;1.40;;
10985;SDS011;5546;48.714;8.738;2023-04-24T04:10:55;5.53;;;1.70;;
10985;SDS011;5546;48.714;8.738;2023-04-24T04:13:21;1.83;;;1.70;;
10985;SDS011;5546;48.714;8.738;2023-04-24T04:15:47;4.83;;;1.37;;
10985;SDS011;5546;48.714;8.738;2023-04-24T04:18:12;1.97;;;1.60;;
10985;SDS011;5546;48.714;8.738;2023-04-24T04:20:38;1.57;;;1.33;;
10985;SDS011;5546;48.714;8.738;2023-04-24T04:23:04;2.07;;;1.30;;
10985;SDS011;5546;48.714;8.738;2023-04-24T04:25:30;2.87;;;1.50;;
10985;SDS011;5546;48.714;8.738;2023-04-24T04:27:56;1.63;;;1.17;;
10985;SDS011;5546;48.714;8.738;2023-04-24T04:30:24;1.70;;;1.50;;
10985;SDS011;5546;48.714;8.738;2023-04-24T04:32:50;2.30;;;1.43;;
10985;SDS011;5546;48.714;8.738;2023-04-24T04:35:16;1.70;;;1.30;;
10985;SDS011;5546;48.714;8.738;2023-04-24T04:37:42;2.17;;;1.70;;
10985;SDS011;5546;48.714;8.738;2023-04-24T04:40:08;1.83;;;1.37;;
10985;SDS011;5546;48.714;8.738;2023-04-24T04:42:37;1.43;;;1.30;;
10985;SDS011;5546;48.714;8.738;2023-04-24T04:45:07;1.87;;;1.40;;
10985;SDS011;5546;48.714;8.738;2023-04-24T04:47:36;2.47;;;1.70;;
10985;SDS011;5546;48.714;8.738;2023-04-24T04:50:02;1.73;;;1.63;;
10985;SDS011;5546;48.714;8.738;2023-04-24T04:52:28;2.53;;;1.70;;
10985;SDS011;5546;48.714;8.738;2023-04-24T04:54:55;2.57;;;1.67;;
10985;SDS011;5546;48.714;8.738;2023-04-24T04:57:20;1.53;;;1.43;;
10985;SDS011;5546;48.714;8.738;2023-04-24T04:59:46;1.87;;;1.73;;
10985;SDS011;5546;48.714;8.738;2023-04-24T05:02:12;2.20;;;1.77;;
10985;SDS011;5546;48.714;8.738;2023-04-24T05:04:38;1.93;;;1.83;;
10985;SDS011;5546;48.714;8.738;2023-04-24T05:07:04;2.20;;;2.00;;
10985;SDS011;5546;48.714;8.738;2023-04-24T05:09:31;2.87;;;2.43;;
10985;SDS011;5546;48.714;8.738;2023-04-24T05:11:56;2.33;;;1.90;;
10985;SDS011;5546;48.714;8.738;2023-04-24T05:14:22;2.90;;;2.17;;
10985;SDS011;5546;48.714;8.738;2023-04-24T05:16:48;3.83;;;2.53;;
10985;SDS011;5546;48.714;8.738;2023-04-24T05:19:14;2.27;;;2.00;;
10985;SDS011;5546;48.714;8.738;2023-04-24T05:21:40;2.20;;;2.00;;
10985;SDS011;5546;48.714;8.738;2023-04-24T05:24:06;2.20;;;2.00;;
10985;SDS011;5546;48.714;8.738;2023-04-24T05:26:32;2.57;;;2.00;;
10985;SDS011;5546;48.714;8.738;2023-04-24T05:28:58;3.07;;;2.40;;
10985;SDS011;5546;48.714;8.738;2023-04-24T05:31:25;2.50;;;2.30;;
10985;SDS011;5546;48.714;8.738;2023-04-24T05:33:50;2.40;;;2.13;;
10985;SDS011;5546;48.714;8.738;2023-04-24T05:36:16;2.80;;;2.10;;
10985;SDS011;5546;48.714;8.738;2023-04-24T05:38:42;3.70;;;2.13;;
10985;SDS011;5546;48.714;8.738;2023-04-24T05:41:08;2.77;;;2.10;;
10985;SDS011;5546;48.714;8.738;2023-04-24T05:43:34;2.07;;;1.70;;
10985;SDS011;5546;48.714;8.738;2023-04-24T05:46:00;3.10;;;2.47;;
10985;SDS011;5546;48.714;8.738;2023-04-24T05:48:26;3.60;;;2.63;;
10985;SDS011;5546;48.714;8.738;2023-04-24T05:50:52;2.37;;;2.17;;
10985;SDS011;5546;48.714;8.738;2023-04-24T05:53:18;3.77;;;2.30;;
10985;SDS011;5546;48.714;8.738;2023-04-24T05:55:44;2.53;;;2.17;;
10985;SDS011;5546;48.714;8.738;2023-04-24T05:58:10;1.77;;;1.60;;
10985;SDS011;5546;48.714;8.738;2023-04-24T06:00:36;2.07;;;1.70;;
10985;SDS011;5546;48.714;8.738;2023-04-24T06:03:04;1.80;;;1.30;;
10985;SDS011;5546;48.714;8.738;2023-04-24T06:05:30;1.93;;;1.70;;
10985;SDS011;5546;48.714;8.738;2023-04-24T06:07:56;1.93;;;1.67;;
10985;SDS011;5546;48.714;8.738;2023-04-24T06:10:22;1.70;;;1.60;;
10985;SDS011;5546;48.714;8.738;2023-04-24T06:12:48;1.80;;;1.67;;
10985;SDS011;5546;48.714;8.738;2023-04-24T06:15:13;2.13;;;1.80;;
10985;SDS011;5546;48.714;8.738;2023-04-24T06:17:39;1.97;;;1.50;;
10985;SDS011;5546;48.714;8.738;2023-04-24T06:20:05;3.23;;;2.30;;
10985;SDS011;5546;48.714;8.738;2023-04-24T06:22:32;2.40;;;1.58;;
10985;SDS011;5546;48.714;8.738;2023-04-24T06:24:59;2.93;;;2.10;;
10985;SDS011;5546;48.714;8.738;2023-04-24T06:27:25;1.87;;;1.50;;
10985;SDS011;5546;48.714;8.738;2023-04-24T06:29:50;2.93;;;1.83;;
10985;SDS011;5546;48.714;8.738;2023-04-24T06:32:21;1.97;;;1.60;;
10985;SDS011;5546;48.714;8.738;2023-04-24T06:34:47;2.03;;;1.77;;
10985;SDS011;5546;48.714;8.738;2023-04-24T06:37:13;3.57;;;1.67;;
10985;SDS011;5546;48.714;8.738;2023-04-24T06:39:39;1.90;;;1.70;;
10985;SDS011;5546;48.714;8.738;2023-04-24T06:42:04;2.13;;;1.60;;
10985;SDS011;5546;48.714;8.738;2023-04-24T06:44:30;2.13;;;1.80;;
10985;SDS011;5546;48.714;8.738;2023-04-24T06:46:56;1.97;;;1.50;;
10985;SDS011;5546;48.714;8.738;2023-04-24T06:49:21;2.63;;;1.63;;
10985;SDS011;5546;48.714;8.738;2023-04-24T06:51:47;2.43;;;1.80;;
10985;SDS011;5546;48.714;8.738;2023-04-24T06:54:13;2.47;;;1.53;;
10985;SDS011;5546;48.714;8.738;2023-04-24T06:56:38;2.33;;;1.50;;
10985;SDS011;5546;48.714;8.738;2023-04-24T06:59:04;1.97;;;1.40;;
10985;SDS011;5546;48.714;8.738;2023-04-24T07:01:30;1.70;;;1.60;;
10985;SDS011;5546;48.714;8.738;2023-04-24T07:03:55;1.53;;;1.43;;
10985;SDS011;5546;48.714;8.738;2023-04-24T07:06:21;1.70;;;1.47;;
10985;SDS011;5546;48.714;8.738;2023-04-24T07:08:48;2.43;;;1.30;;
10985;SDS011;5546;48.714;8.738;2023-04-24T07:11:14;2.10;;;1.53;;
10985;SDS011;5546;48.714;8.738;2023-04-24T07:13:40;2.30;;;1.70;;
10985;SDS011;5546;48.714;8.738;2023-04-24T07:16:07;2.67;;;1.63;;
10985;SDS011;5546;48.714;8.738;2023-04-24T07:18:33;2.90;;;1.50;;
10985;SDS011;5546;48.714;8.738;2023-04-24T07:20:59;1.67;;;1.50;;
10985;SDS011;5546;48.714;8.738;2023-04-24T07:23:25;2.10;;;1.70;;
10985;SDS011;5546;48.714;8.738;2023-04-24T07:25:51;3.23;;;1.90;;
10985;SDS011;5546;48.714;8.738;2023-04-24T07:28:16;3.40;;;1.50;;
10985;SDS011;5546;48.714;8.738;2023-04-24T07:30:43;1.87;;;1.50;;
10985;SDS011;5546;48.714;8.738;2023-04-24T07:33:08;2.43;;;1.50;;
10985;SDS011;5546;48.714;8.738;2023-04-24T07:35:37;3.50;;;1.67;;
10985;SDS011;5546;48.714;8.738;2023-04-24T07:38:03;1.77;;;1.43;;
10985;SDS011;5546;48.714;8.738;2023-04-24T07:40:29;2.43;;;1.33;;
10985;SDS011;5546;48.714;8.738;2023-04-24T07:42:55;3.77;;;1.30;;
10985;SDS011;5546;48.714;8.738;2023-04-24T07:45:21;3.50;;;1.50;;
10985;SDS011;5546;48.714;8.738;2023-04-24T07:47:47;2.10;;;1.50;;
10985;SDS011;5546;48.714;8.738;2023-04-24T07:50:13;2.47;;;1.60;;
10985;SDS011;5546;48.714;8.738;2023-04-24T07:52:39;2.10;;;1.40;;
10985;SDS011;5546;48.714;8.738;2023-04-24T07:55:04;2.38;;;1.40;;
10985;SDS011;5546;48.714;8.738;2023-04-24T07:57:30;2.77;;;1.60;;
10985;SDS011;5546;48.714;8.738;2023-04-24T07:59:56;2.80;;;1.40;;
10985;SDS011;5546;48.714;8.738;2023-04-24T08:02:22;1.55;;;1.20;;
10985;SDS011;5546;48.714;8.738;2023-04-24T08:04:51;1.67;;;0.98;;
10985;SDS011;5546;48.714;8.738;2023-04-24T08:07:19;3.42;;;1.23;;
10985;SDS011;5546;48.714;8.738;2023-04-24T08:09:44;3.42;;;1.60;;
10985;SDS011;5546;48.714;8.738;2023-04-24T08:12:10;2.60;;;1.33;;
10985;SDS011;5546;48.714;8.738;2023-04-24T08:14:35;2.57;;;1.47;;
10985;SDS011;5546;48.714;8.738;2023-04-24T08:17:01;2.97;;;1.83;;
10985;SDS011;5546;48.714;8.738;2023-04-24T08:19:27;2.37;;;1.40;;
10985;SDS011;5546;48.714;8.738;2023-04-24T08:21:53;1.50;;;1.40;;
10985;SDS011;5546;48.714;8.738;2023-04-24T08:24:18;2.03;;;1.30;;
10985;SDS011;5546;48.714;8.738;2023-04-24T08:26:44;1.95;;;1.45;;
10985;SDS011;5546;48.714;8.738;2023-04-24T08:29:11;4.30;;;2.30;;
10985;SDS011;5546;48.714;8.738;2023-04-24T08:31:36;2.67;;;1.50;;
10985;SDS011;5546;48.714;8.738;2023-04-24T08:34:02;2.00;;;1.50;;
10985;SDS011;5546;48.714;8.738;2023-04-24T08:36:27;2.73;;;1.70;;
10985;SDS011;5546;48.714;8.738;2023-04-24T08:38:53;2.27;;;1.50;;
10985;SDS011;5546;48.714;8.738;2023-04-24T08:41:18;2.10;;;1.83;;
10985;SDS011;5546;48.714;8.738;2023-04-24T08:43:47;2.40;;;1.77;;
10985;SDS011;5546;48.714;8.738;2023-04-24T08:46:13;3.17;;;2.17;;
10985;SDS011;5546;48.714;8.738;2023-04-24T08:48:41;1.90;;;1.70;;
10985;SDS011;5546;48.714;8.738;2023-04-24T08:51:07;2.05;;;1.67;;
10985;SDS011;5546;48.714;8.738;2023-04-24T08:53:33;2.10;;;1.40;;
10985;SDS011;5546;48.714;8.738;2023-04-24T08:56:00;3.08;;;1.83;;
10985;SDS011;5546;48.714;8.738;2023-04-24T08:58:27;1.63;;;1.40;;
10985;SDS011;5546;48.714;8.738;2023-04-24T09:00:56;3.22;;;1.40;;
10985;SDS011;5546;48.714;8.738;2023-04-24T09:03:22;2.05;;;1.45;;
10985;SDS011;5546;48.714;8.738;2023-04-24T09:05:48;1.60;;;1.30;;
10985;SDS011;5546;48.714;8.738;2023-04-24T09:08:16;2.45;;;1.50;;
10985;SDS011;5546;48.714;8.738;2023-04-24T09:10:43;2.03;;;1.30;;
10985;SDS011;5546;48.714;8.738;2023-04-24T09:13:09;2.55;;;1.50;;
10985;SDS011;5546;48.714;8.738;2023-04-24T09:15:36;1.65;;;1.40;;
10985;SDS011;5546;48.714;8.738;2023-04-24T09:18:02;1.95;;;1.35;;
10985;SDS011;5546;48.714;8.738;2023-04-24T09:20:28;1.98;;;1.30;;
10985;SDS011;5546;48.714;8.738;2023-04-24T09:22:54;1.60;;;1.40;;
10985;SDS011;5546;48.714;8.738;2023-04-24T09:25:23;1.30;;;1.20;;
10985;SDS011;5546;48.714;8.738;2023-04-24T09:27:59;1.75;;;1.15;;
10985;SDS011;5546;48.714;8.738;2023-04-24T09:30:25;3.78;;;1.40;;
10985;SDS011;5546;48.714;8.738;2023-04-24T09:33:09;1.38;;;1.27;;
10985;SDS011;5546;48.714;8.738;2023-04-24T09:35:42;1.55;;;1.30;;
10985;SDS011;5546;48.714;8.738;2023-04-24T09:38:13;1.83;;;1.20;;
10985;SDS011;5546;48.714;8.738;2023-04-24T09:40:39;1.67;;;1.30;;
10985;SDS011;5546;48.714;8.738;2023-04-24T09:43:05;2.03;;;1.40;;
10985;SDS011;5546;48.714;8.738;2023-04-24T09:45:36;1.77;;;1.58;;
10985;SDS011;5546;48.714;8.738;2023-04-24T09:48:03;2.00;;;1.20;;
10985;SDS011;5546;48.714;8.738;2023-04-24T09:50:31;2.75;;;2.10;;
10985;SDS011;5546;48.714;8.738;2023-04-24T09:52:57;1.40;;;1.30;;
10985;SDS011;5546;48.714;8.738;2023-04-24T09:55:26;1.52;;;1.13;;
10985;SDS011;5546;48.714;8.738;2023-04-24T09:57:53;2.60;;;1.20;;
10985;SDS011;5546;48.714;8.738;2023-04-24T10:00:25;2.22;;;1.40;;
10985;SDS011;5546;48.714;8.738;2023-04-24T10:02:55;2.10;;;1.30;;
10985;SDS011;5546;48.714;8.738;2023-04-24T10:05:29;1.92;;;1.38;;
10985;SDS011;5546;48.714;8.738;2023-04-24T10:07:56;2.28;;;1.50;;
10985;SDS011;5546;48.714;8.738;2023-04-24T10:10:33;2.00;;;1.40;;
10985;SDS011;5546;48.714;8.738;2023-04-24T10:13:01;3.03;;;1.35;;
10985;SDS011;5546;48.714;8.738;2023-04-24T10:15:27;2.10;;;1.33;;
10985;SDS011;5546;48.714;8.738;2023-04-24T10:17:53;2.10;;;1.33;;
10985;SDS011;5546;48.714;8.738;2023-04-24T10:20:20;3.50;;;1.27;;
10985;SDS011;5546;48.714;8.738;2023-04-24T10:22:50;1.48;;;1.38;;
10985;SDS011;5546;48.714;8.738;2023-04-24T10:25:21;2.90;;;1.60;;
10985;SDS011;5546;48.714;8.738;2023-04-24T10:27:52;1.45;;;1.27;;
10985;SDS011;5546;48.714;8.738;2023-04-24T10:30:22;1.23;;;1.10;;
10985;SDS011;5546;48.714;8.738;2023-04-24T10:32:48;1.20;;;1.10;;
10985;SDS011;5546;48.714;8.738;2023-04-24T10:35:13;2.60;;;1.20;;
10985;SDS011;5546;48.714;8.738;2023-04-24T10:37:42;1.30;;;1.20;;
10985;SDS011;5546;48.714;8.738;2023-04-24T10:40:11;2.07;;;1.20;;
10985;SDS011;5546;48.714;8.738;2023-04-24T10:42:41;1.93;;;1.60;;
10985;SDS011;5546;48.714;8.738;2023-04-24T10:45:15;2.03;;;1.30;;
10985;SDS011;5546;48.714;8.738;2023-04-24T10:47:43;1.70;;;1.57;;
10985;SDS011;5546;48.714;8.738;2023-04-24T10:50:43;4.13;;;1.30;;
10985;SDS011;5546;48.714;8.738;2023-04-24T10:53:14;3.70;;;2.30;;
10985;SDS011;5546;48.714;8.738;2023-04-24T10:55:43;2.30;;;1.63;;
10985;SDS011;5546;48.714;8.738;2023-04-24T10:58:09;3.17;;;1.43;;
10985;SDS011;5546;48.714;8.738;2023-04-24T11:00:39;1.97;;;1.40;;
10985;SDS011;5546;48.714;8.738;2023-04-24T11:03:06;2.27;;;1.60;;
10985;SDS011;5546;48.714;8.738;2023-04-24T11:08:26;1.30;;;1.20;;
10985;SDS011;5546;48.714;8.738;2023-04-24T11:11:02;3.43;;;1.67;;
10985;SDS011;5546;48.714;8.738;2023-04-24T11:16:21;1.90;;;1.40;;
10985;SDS011;5546;48.714;8.738;2023-04-24T11:18:50;1.17;;;1.00;;
10985;SDS011;5546;48.714;8.738;2023-04-24T11:21:19;1.83;;;1.30;;
10985;SDS011;5546;48.714;8.738;2023-04-24T11:23:46;3.67;;;1.60;;
10985;SDS011;5546;48.714;8.738;2023-04-24T11:26:13;2.05;;;1.40;;
10985;SDS011;5546;48.714;8.738;2023-04-24T11:28:55;1.30;;;1.20;;
10985;SDS011;5546;48.714;8.738;2023-04-24T11:31:38;1.48;;;1.23;;
10985;SDS011;5546;48.714;8.738;2023-04-24T11:34:10;2.33;;;1.50;;
10985;SDS011;5546;48.714;8.738;2023-04-24T11:36:38;1.43;;;1.20;;
10985;SDS011;5546;48.714;8.738;2023-04-24T11:39:03;3.20;;;1.37;;
10985;SDS011;5546;48.714;8.738;2023-04-24T11:41:29;2.77;;;1.27;;
10985;SDS011;5546;48.714;8.738;2023-04-24T11:43:55;1.70;;;1.20;;
10985;SDS011;5546;48.714;8.738;2023-04-24T11:46:22;1.50;;;1.30;;
10985;SDS011;5546;48.714;8.738;2023-04-24T11:48:47;2.73;;;1.80;;
10985;SDS011;5546;48.714;8.738;2023-04-24T11:51:13;2.43;;;1.70;;
10985;SDS011;5546;48.714;8.738;2023-04-24T11:53:39;1.60;;;1.50;;
10985;SDS011;5546;48.714;8.738;2023-04-24T11:56:05;1.70;;;1.60;;
10985;SDS011;5546;48.714;8.738;2023-04-24T11:58:35;2.20;;;1.50;;
10985;SDS011;5546;48.714;8.738;2023-04-24T12:01:01;2.77;;;1.43;;
10985;SDS011;5546;48.714;8.738;2023-04-24T12:03:27;2.00;;;1.47;;
10985;SDS011;5546;48.714;8.738;2023-04-24T12:05:52;1.67;;;1.50;;
10985;SDS011;5546;48.714;8.738;2023-04-24T12:08:29;2.10;;;1.50;;
10985;SDS011;5546;48.714;8.738;2023-04-24T12:10:56;2.77;;;1.57;;
10985;SDS011;5546;48.714;8.738;2023-04-24T12:13:21;1.90;;;1.40;;
10985;SDS011;5546;48.714;8.738;2023-04-24T12:15:47;3.93;;;1.50;;
10985;SDS011;5546;48.714;8.738;2023-04-24T12:18:12;5.17;;;1.80;;
10985;SDS011;5546;48.714;8.738;2023-04-24T12:20:40;1.50;;;1.20;;
10985;SDS011;5546;48.714;8.738;2023-04-24T12:23:08;1.70;;;1.40;;
10985;SDS011;5546;48.714;8.738;2023-04-24T12:25:34;2.33;;;1.20;;
10985;SDS011;5546;48.714;8.738;2023-04-24T12:30:29;1.30;;;1.20;;
10985;SDS011;5546;48.714;8.738;2023-04-24T12:32:57;1.77;;;1.50;;
10985;SDS011;5546;48.714;8.738;2023-04-24T12:35:24;3.13;;;1.53;;
10985;SDS011;5546;48.714;8.738;2023-04-24T12:37:51;1.93;;;1.50;;
10985;SDS011;5546;48.714;8.738;2023-04-24T12:40:17;2.70;;;1.53;;
10985;SDS011;5546;48.714;8.738;2023-04-24T12:42:47;2.00;;;1.53;;
10985;SDS011;5546;48.714;8.738;2023-04-24T12:45:14;1.63;;;1.53;;
10985;SDS011;5546;48.714;8.738;2023-04-24T12:47:40;1.90;;;1.50;;
10985;SDS011;5546;48.714;8.738;2023-04-24T12:50:08;2.00;;;1.50;;
10985;SDS011;5546;48.714;8.738;2023-04-24T12:52:35;1.53;;;1.40;;
10985;SDS011;5546;48.714;8.738;2023-04-24T12:55:01;1.30;;;1.20;;
10985;SDS011;5546;48.714;8.738;2023-04-24T12:57:28;3.63;;;1.50;;
10985;SDS011;5546;48.714;8.738;2023-04-24T12:59:55;2.17;;;1.50;;
10985;SDS011;5546;48.714;8.738;2023-04-24T13:02:22;1.60;;;1.40;;
10985;SDS011;5546;48.714;8.738;2023-04-24T13:04:58;1.50;;;1.40;;
10985;SDS011;5546;48.714;8.738;2023-04-24T13:07:24;3.37;;;1.53;;
10985;SDS011;5546;48.714;8.738;2023-04-24T13:09:50;1.40;;;1.20;;
10985;SDS011;5546;48.714;8.738;2023-04-24T13:12:17;2.90;;;1.63;;
10985;SDS011;5546;48.714;8.738;2023-04-24T13:14:42;1.60;;;1.50;;
10985;SDS011;5546;48.714;8.738;2023-04-24T13:17:08;2.53;;;1.60;;
10985;SDS011;5546;48.714;8.738;2023-04-24T13:19:44;2.40;;;1.77;;
10985;SDS011;5546;48.714;8.738;2023-04-24T13:22:10;2.37;;;1.77;;
10985;SDS011;5546;48.714;8.738;2023-04-24T13:24:37;2.60;;;1.70;;
10985;SDS011;5546;48.714;8.738;2023-04-24T13:27:03;1.47;;;1.33;;
10985;SDS011;5546;48.714;8.738;2023-04-24T13:29:29;2.70;;;1.70;;
10985;SDS011;5546;48.714;8.738;2023-04-24T13:31:54;2.27;;;1.60;;
10985;SDS011;5546;48.714;8.738;2023-04-24T13:34:22;2.20;;;1.80;;
10985;SDS011;5546;48.714;8.738;2023-04-24T13:36:49;2.00;;;1.73;;
10985;SDS011;5546;48.714;8.738;2023-04-24T13:39:15;2.23;;;1.80;;
10985;SDS011;5546;48.714;8.738;2023-04-24T13:41:41;2.50;;;2.20;;
10985;SDS011;5546;48.714;8.738;2023-04-24T13:44:07;2.30;;;2.10;;
10985;SDS011;5546;48.714;8.738;2023-04-24T13:46:33;4.20;;;2.30;;
10985;SDS011;5546;48.714;8.738;2023-04-24T13:48:59;2.67;;;2.27;;
10985;SDS011;5546;48.714;8.738;2023-04-24T13:51:25;2.40;;;1.93;;
10985;SDS011;5546;48.714;8.738;2023-04-24T13:53:54;2.80;;;2.20;;
10985;SDS011;5546;48.714;8.738;2023-04-24T13:56:20;2.20;;;1.80;;
10985;SDS011;5546;48.714;8.738;2023-04-24T13:58:46;1.93;;;1.73;;
10985;SDS011;5546;48.714;8.738;2023-04-24T14:01:12;2.23;;;1.93;;
10985;SDS011;5546;48.714;8.738;2023-04-24T14:03:38;1.90;;;1.40;;
10985;SDS011;5546;48.714;8.738;2023-04-24T14:06:03;1.60;;;1.50;;
10985;SDS011;5546;48.714;8.738;2023-04-24T14:08:29;1.80;;;1.70;;
10985;SDS011;5546;48.714;8.738;2023-04-24T14:10:55;2.73;;;1.80;;
10985;SDS011;5546;48.714;8.738;2023-04-24T14:13:20;2.20;;;2.00;;
10985;SDS011;5546;48.714;8.738;2023-04-24T14:15:46;2.30;;;2.10;;
10985;SDS011;5546;48.714;8.738;2023-04-24T14:18:12;3.37;;;2.00;;
10985;SDS011;5546;48.714;8.738;2023-04-24T14:20:37;3.67;;;1.87;;
10985;SDS011;5546;48.714;8.738;2023-04-24T14:23:03;2.30;;;2.10;;
10985;SDS011;5546;48.714;8.738;2023-04-24T14:25:29;2.20;;;1.83;;
10985;SDS011;5546;48.714;8.738;2023-04-24T14:27:55;3.47;;;1.83;;
10985;SDS011;5546;48.714;8.738;2023-04-24T14:30:20;2.27;;;2.07;;
10985;SDS011;5546;48.714;8.738;2023-04-24T14:32:46;3.67;;;2.10;;
10985;SDS011;5546;48.714;8.738;2023-04-24T14:35:12;4.60;;;2.17;;
10985;SDS011;5546;48.714;8.738;2023-04-24T14:37:39;2.30;;;2.10;;
10985;SDS011;5546;48.714;8.738;2023-04-24T14:40:06;1.97;;;1.77;;
10985;SDS011;5546;48.714;8.738;2023-04-24T14:42:33;2.40;;;1.70;;
10985;SDS011;5546;48.714;8.738;2023-04-24T14:44:58;2.20;;;1.73;;
10985;SDS011;5546;48.714;8.738;2023-04-24T14:47:24;1.50;;;1.40;;
10985;SDS011;5546;48.714;8.738;2023-04-24T14:49:50;3.47;;;1.80;;
10985;SDS011;5546;48.714;8.738;2023-04-24T14:52:15;2.27;;;1.70;;
10985;SDS011;5546;48.714;8.738;2023-04-24T14:54:41;1.97;;;1.77;;
10985;SDS011;5546;48.714;8.738;2023-04-24T14:57:07;2.67;;;2.03;;
10985;SDS011;5546;48.714;8.738;2023-04-24T14:59:33;2.57;;;1.67;;
10985;SDS011;5546;48.714;8.738;2023-04-24T15:01:59;1.87;;;1.60;;
10985;SDS011;5546;48.714;8.738;2023-04-24T15:04:27;2.53;;;1.77;;
10985;SDS011;5546;48.714;8.738;2023-04-24T15:06:56;3.93;;;1.57;;